Time;durP1;ratioP1;P1;durP2;ratioP2;P2;SDS_P1;SDS_P2;PMS_P1;PMS_P2;Temp;Humidity;BMP_temperature;BMP_pressure;BME280_temperature;BME280_humidity;BME280_pressure;Samples;Min_cycle;Max_cycle;Signal;HPM_P1;HPM_P2
2023/08/15 00:02:12;;;;;;;11.48;8.15;;;19.00;99.90;;;;;;5084407;28;20427;-56
2023/08/15 00:04:37;;;;;;;10.43;7.85;;;18.90;99.90;;;;;;5064604;28;20043;-56
2023/08/15 00:07:04;;;;;;;12.27;8.05;;;18.90;99.90;;;;;;5098803;28;20051;-56
2023/08/15 00:09:31;;;;;;;14.18;8.68;;;18.90;99.90;;;;;;5102330;28;20039;-56
2023/08/15 00:11:57;;;;;;;16.42;8.57;;;18.90;99.90;;;;;;5092395;28;20044;-56
2023/08/15 00:14:22;;;;;;;12.77;8.48;;;18.80;99.90;;;;;;5083287;28;20059;-56
2023/08/15 00:16:48;;;;;;;11.05;8.32;;;18.90;99.90;;;;;;5081372;28;20071;-56
2023/08/15 00:19:14;;;;;;;12.23;8.35;;;18.80;99.90;;;;;;5080721;28;20086;-57
2023/08/15 00:21:39;;;;;;;12.10;7.78;;;18.80;99.90;;;;;;5081890;28;20044;-56
2023/08/15 00:24:05;;;;;;;14.82;8.65;;;18.80;99.90;;;;;;5068245;28;20068;-56
2023/08/15 00:26:31;;;;;;;12.15;8.38;;;18.80;99.90;;;;;;5062073;28;20033;-56
2023/08/15 00:28:58;;;;;;;11.55;8.65;;;18.80;99.90;;;;;;5074181;28;20063;-56
2023/08/15 00:31:24;;;;;;;15.63;8.77;;;18.80;99.90;;;;;;5080160;28;20597;-56
2023/08/15 00:33:50;;;;;;;13.43;8.38;;;18.80;99.90;;;;;;5076899;28;20587;-56
2023/08/15 00:36:15;;;;;;;12.65;9.00;;;18.80;99.90;;;;;;5065460;28;20055;-56
2023/08/15 00:38:41;;;;;;;12.45;8.32;;;18.80;99.90;;;;;;5075891;28;20062;-57
2023/08/15 00:41:07;;;;;;;13.82;8.90;;;18.80;99.90;;;;;;5078562;28;20051;-56
2023/08/15 00:43:33;;;;;;;13.68;9.07;;;18.80;99.90;;;;;;5075473;28;20070;-57
2023/08/15 00:46:00;;;;;;;12.40;8.30;;;18.90;99.90;;;;;;5079665;28;20032;-56
2023/08/15 00:48:29;;;;;;;16.85;8.20;;;18.90;99.90;;;;;;5101769;28;20083;-56
2023/08/15 00:50:58;;;;;;;15.45;9.02;;;18.90;99.90;;;;;;5094310;28;20374;-56
2023/08/15 00:53:23;;;;;;;16.20;9.20;;;18.80;99.90;;;;;;5081311;28;20049;-57
2023/08/15 00:55:51;;;;;;;12.38;8.38;;;18.80;99.90;;;;;;5077880;28;20055;-56
2023/08/15 00:58:17;;;;;;;17.25;9.57;;;18.90;99.90;;;;;;5079347;28;20068;-57
2023/08/15 01:00:43;;;;;;;10.57;8.57;;;18.80;99.90;;;;;;5082449;28;20047;-56
2023/08/15 01:03:09;;;;;;;15.40;8.95;;;18.80;99.90;;;;;;5089040;28;20056;-57
2023/08/15 01:05:36;;;;;;;14.88;9.63;;;18.80;99.90;;;;;;5080118;28;20033;-56
2023/08/15 01:08:03;;;;;;;18.05;9.32;;;18.80;99.90;;;;;;5078190;28;20052;-56
2023/08/15 01:10:28;;;;;;;17.90;10.27;;;18.80;99.90;;;;;;5080807;28;20044;-57
2023/08/15 01:13:25;;;;;;;15.23;9.40;;;18.80;99.90;;;;;;5081132;28;20036;-56
2023/08/15 01:15:51;;;;;;;;;;;18.80;99.90;;;;;;5098567;28;20058;-56
2023/08/15 01:18:43;;;;;;;17.67;10.57;;;18.70;99.90;;;;;;5084757;28;19920;-56
2023/08/15 01:21:11;;;;;;;16.67;9.15;;;18.70;99.90;;;;;;5076856;28;20055;-56
2023/08/15 01:23:42;;;;;;;13.20;9.23;;;18.70;99.90;;;;;;5078376;28;20066;-57
2023/08/15 01:26:08;;;;;;;13.90;9.07;;;18.80;99.90;;;;;;5081156;28;20045;-56
2023/08/15 01:28:33;;;;;;;19.00;11.45;;;18.80;99.90;;;;;;5079015;28;20069;-56
2023/08/15 01:31:06;;;;;;;12.95;10.18;;;18.80;99.90;;;;;;5091865;28;20146;-56
2023/08/15 01:33:38;;;;;;;14.70;10.63;;;18.80;99.90;;;;;;5078881;28;20509;-56
2023/08/15 01:36:18;;;;;;;16.45;11.65;;;18.80;99.90;;;;;;5070045;28;20083;-57
2023/08/15 01:38:59;;;;;;;15.52;10.80;;;18.80;99.90;;;;;;5061393;28;20074;-56
2023/08/15 01:41:25;;;;;;;17.85;11.23;;;18.80;99.90;;;;;;5079604;28;20518;-56
2023/08/15 01:43:53;;;;;;;16.25;10.93;;;18.80;99.90;;;;;;5076749;28;20112;-56
2023/08/15 01:46:19;;;;;;;12.50;10.55;;;18.80;99.90;;;;;;5090570;28;20032;-57
2023/08/15 01:48:45;;;;;;;15.80;10.90;;;18.80;99.90;;;;;;5079852;28;20068;-57
2023/08/15 01:51:10;;;;;;;16.25;12.38;;;18.80;99.90;;;;;;5080037;28;20052;-56
2023/08/15 01:53:37;;;;;;;15.20;10.98;;;18.80;99.90;;;;;;5076586;28;20066;-56
2023/08/15 01:56:03;;;;;;;15.10;10.38;;;18.80;99.90;;;;;;5084060;28;20032;-56
2023/08/15 01:58:29;;;;;;;17.48;12.10;;;18.80;99.90;;;;;;5098488;28;20047;-56
2023/08/15 02:00:55;;;;;;;15.77;11.25;;;18.80;99.90;;;;;;5090213;28;20043;-56
2023/08/15 02:03:20;;;;;;;13.93;11.38;;;18.90;99.90;;;;;;5080605;28;20048;-56
2023/08/15 02:05:46;;;;;;;18.45;11.73;;;18.90;99.90;;;;;;5077734;28;20052;-57
2023/08/15 02:08:12;;;;;;;16.38;12.18;;;18.80;99.90;;;;;;5069493;28;20049;-57
2023/08/15 02:10:38;;;;;;;20.05;12.52;;;18.90;99.90;;;;;;5072901;28;20101;-57
2023/08/15 02:13:03;;;;;;;21.48;13.25;;;18.80;99.90;;;;;;5077435;28;20037;-56
2023/08/15 02:15:29;;;;;;;19.20;12.23;;;18.80;99.90;;;;;;5092727;28;20073;-57
2023/08/15 02:17:55;;;;;;;21.02;13.88;;;18.80;99.90;;;;;;5100592;28;20040;-56
2023/08/15 02:20:21;;;;;;;22.98;13.77;;;18.80;99.90;;;;;;5081633;28;20033;-56
2023/08/15 02:22:46;;;;;;;15.95;13.23;;;18.80;99.90;;;;;;5076612;28;20060;-56
2023/08/15 02:25:12;;;;;;;19.00;13.88;;;18.80;99.90;;;;;;5077800;28;20040;-56
2023/08/15 02:27:38;;;;;;;20.25;14.43;;;18.80;99.90;;;;;;5076428;28;20051;-56
2023/08/15 02:30:05;;;;;;;18.85;13.88;;;18.90;99.90;;;;;;5081494;28;20044;-56
2023/08/15 02:32:31;;;;;;;20.63;14.30;;;18.80;99.90;;;;;;5082175;28;20055;-57
2023/08/15 02:34:56;;;;;;;21.70;15.00;;;18.90;99.90;;;;;;5082776;28;20102;-57
2023/08/15 02:37:22;;;;;;;19.98;14.15;;;18.90;99.90;;;;;;5081226;28;20128;-56
2023/08/15 02:39:48;;;;;;;24.48;14.40;;;18.90;99.90;;;;;;5078674;28;20520;-56
2023/08/15 02:42:14;;;;;;;24.58;14.80;;;18.90;99.90;;;;;;5094472;28;20031;-56
2023/08/15 02:44:39;;;;;;;19.52;14.27;;;18.90;99.90;;;;;;5085405;28;20066;-56
2023/08/15 02:47:05;;;;;;;18.13;14.40;;;18.90;99.90;;;;;;5083913;28;20044;-57
2023/08/15 02:49:31;;;;;;;22.73;13.55;;;18.90;99.90;;;;;;5082081;28;20044;-57
2023/08/15 02:51:57;;;;;;;19.70;15.02;;;18.90;99.90;;;;;;5084080;28;20051;-56
2023/08/15 02:54:22;;;;;;;21.38;13.50;;;18.80;99.90;;;;;;5077673;28;20036;-57
2023/08/15 02:56:48;;;;;;;18.67;14.15;;;18.80;99.90;;;;;;5086113;28;20465;-56
2023/08/15 02:59:14;;;;;;;20.20;14.60;;;18.90;99.90;;;;;;5095208;28;20040;-56
2023/08/15 03:01:39;;;;;;;16.73;13.05;;;18.80;99.90;;;;;;5096149;28;20036;-56
2023/08/15 03:04:08;;;;;;;20.75;13.57;;;18.80;99.90;;;;;;5083124;28;20097;-56
2023/08/15 03:06:35;;;;;;;19.85;12.75;;;18.90;99.90;;;;;;5077619;28;20048;-57
2023/08/15 03:09:01;;;;;;;20.20;13.85;;;18.80;99.90;;;;;;5093927;28;20059;-57
2023/08/15 03:11:28;;;;;;;16.77;12.30;;;18.90;99.90;;;;;;5101524;28;20434;-56
2023/08/15 03:13:54;;;;;;;24.33;13.10;;;18.80;99.90;;;;;;5094213;28;20508;-56
2023/08/15 03:16:20;;;;;;;17.80;11.85;;;18.90;99.90;;;;;;5082175;28;20063;-56
2023/08/15 03:18:47;;;;;;;20.25;11.75;;;18.90;99.90;;;;;;5067464;28;20659;-56
2023/08/15 03:21:12;;;;;;;18.75;11.30;;;18.90;99.90;;;;;;5082128;28;20435;-56
2023/08/15 03:23:38;;;;;;;14.38;11.73;;;18.90;99.90;;;;;;5092844;28;20033;-56
2023/08/15 03:26:05;;;;;;;16.67;10.98;;;18.90;99.90;;;;;;5082319;28;20054;-56
2023/08/15 03:28:31;;;;;;;16.92;9.93;;;18.90;99.90;;;;;;5092626;28;20037;-57
2023/08/15 03:30:56;;;;;;;17.20;9.88;;;18.90;99.90;;;;;;5083147;28;20100;-57
2023/08/15 03:33:23;;;;;;;18.08;9.95;;;18.90;99.90;;;;;;5078886;28;20067;-56
2023/08/15 03:35:51;;;;;;;14.02;10.38;;;18.90;99.90;;;;;;5062071;28;20040;-56
2023/08/15 03:38:18;;;;;;;16.27;9.52;;;18.90;99.90;;;;;;5072176;28;20119;-56
2023/08/15 03:40:45;;;;;;;17.25;9.98;;;18.90;99.90;;;;;;5080926;28;20045;-57
2023/08/15 03:43:11;;;;;;;17.90;9.65;;;18.90;99.90;;;;;;5081403;28;20048;-57
2023/08/15 03:45:37;;;;;;;19.95;10.50;;;18.90;99.90;;;;;;5086310;28;20047;-56
2023/08/15 03:48:07;;;;;;;17.17;9.75;;;18.90;99.90;;;;;;5102907;28;20036;-56
2023/08/15 03:50:34;;;;;;;17.83;9.32;;;18.90;99.90;;;;;;5089070;28;20044;-56
2023/08/15 03:53:00;;;;;;;16.80;9.55;;;18.90;99.90;;;;;;5065352;28;20095;-57
2023/08/15 03:55:30;;;;;;;17.48;9.48;;;18.90;99.90;;;;;;5082244;28;20044;-56
2023/08/15 03:57:55;;;;;;;17.65;9.90;;;18.80;99.90;;;;;;5078294;28;20512;-56
2023/08/15 04:00:21;;;;;;;19.92;10.40;;;18.80;99.90;;;;;;5083068;28;20044;-56
2023/08/15 04:02:47;;;;;;;15.00;9.20;;;18.80;99.90;;;;;;5096553;28;20043;-57
2023/08/15 04:05:13;;;;;;;14.18;9.95;;;18.80;99.90;;;;;;5065777;28;20040;-57
2023/08/15 04:07:40;;;;;;;17.02;9.85;;;18.80;99.90;;;;;;5081195;28;20051;-57
2023/08/15 04:10:06;;;;;;;16.80;9.95;;;18.80;99.90;;;;;;5078919;28;20055;-57
2023/08/15 04:12:33;;;;;;;15.95;10.50;;;18.80;99.90;;;;;;5083200;28;20028;-57
2023/08/15 04:15:01;;;;;;;16.23;10.05;;;18.80;99.90;;;;;;5067024;28;20067;-57
2023/08/15 04:17:27;;;;;;;18.73;9.80;;;18.80;99.90;;;;;;5076209;28;20036;-55
2023/08/15 04:19:53;;;;;;;17.90;9.45;;;18.70;99.90;;;;;;5060029;28;20485;-57
2023/08/15 04:22:19;;;;;;;15.40;10.65;;;18.70;99.90;;;;;;5081897;28;20071;-57
2023/08/15 04:24:45;;;;;;;14.00;9.52;;;18.70;99.90;;;;;;5079858;28;20041;-57
2023/08/15 04:27:11;;;;;;;20.63;10.45;;;18.70;99.90;;;;;;5084907;28;20061;-57
2023/08/15 04:29:36;;;;;;;16.42;10.65;;;18.60;99.90;;;;;;5089060;28;20114;-56
2023/08/15 04:32:02;;;;;;;15.77;10.80;;;18.60;99.90;;;;;;5081174;28;20068;-58
2023/08/15 04:34:29;;;;;;;15.77;9.70;;;18.60;99.90;;;;;;5078803;28;20049;-57
2023/08/15 04:36:54;;;;;;;15.73;10.60;;;18.60;99.90;;;;;;5079664;28;20071;-57
2023/08/15 04:39:23;;;;;;;12.23;9.27;;;18.50;99.90;;;;;;5081875;28;20040;-56
2023/08/15 04:41:49;;;;;;;16.38;9.98;;;18.50;99.90;;;;;;5081497;28;20092;-56
2023/08/15 04:44:15;;;;;;;13.70;8.82;;;18.50;99.90;;;;;;5075045;28;20040;-56
2023/08/15 04:46:41;;;;;;;11.52;9.05;;;18.50;99.90;;;;;;5081458;28;20111;-56
2023/08/15 04:49:07;;;;;;;16.20;8.68;;;18.50;99.90;;;;;;5080129;28;20040;-56
2023/08/15 04:51:33;;;;;;;17.20;9.25;;;18.50;99.90;;;;;;5080632;28;20044;-57
2023/08/15 04:53:58;;;;;;;14.10;8.65;;;18.50;99.90;;;;;;5075789;28;20048;-57
2023/08/15 04:56:24;;;;;;;14.45;8.77;;;18.40;99.90;;;;;;5088732;28;20048;-57
2023/08/15 04:58:50;;;;;;;15.00;7.95;;;18.40;99.90;;;;;;5080381;28;20049;-55
2023/08/15 05:01:16;;;;;;;11.55;7.93;;;18.40;99.90;;;;;;5087962;28;20044;-56
2023/08/15 05:03:41;;;;;;;14.57;7.68;;;18.40;99.90;;;;;;5079733;28;20069;-56
2023/08/15 05:06:07;;;;;;;13.30;7.00;;;18.40;99.90;;;;;;5079519;28;20037;-57
2023/08/15 05:08:33;;;;;;;15.63;7.72;;;18.30;99.90;;;;;;5093140;28;20044;-56
2023/08/15 05:11:00;;;;;;;11.32;7.13;;;18.30;99.90;;;;;;5096115;28;20044;-56
2023/08/15 05:13:26;;;;;;;11.50;7.90;;;18.30;99.90;;;;;;5079560;28;20165;-56
2023/08/15 05:15:53;;;;;;;11.75;6.80;;;18.30;99.90;;;;;;5084622;28;20081;-56
2023/08/15 05:18:20;;;;;;;12.50;6.40;;;18.30;99.90;;;;;;5098429;28;20450;-56
2023/08/15 05:20:47;;;;;;;13.70;7.13;;;18.20;99.90;;;;;;5100666;28;20054;-56
2023/08/15 05:23:13;;;;;;;13.85;7.18;;;18.20;99.90;;;;;;5079994;28;20062;-56
2023/08/15 05:25:41;;;;;;;16.25;7.60;;;18.20;99.90;;;;;;5080891;28;20066;-56
2023/08/15 05:28:07;;;;;;;10.48;7.03;;;18.20;99.90;;;;;;5079099;28;20128;-56
2023/08/15 05:30:33;;;;;;;14.85;7.25;;;18.20;99.90;;;;;;5095744;28;20066;-55
2023/08/15 05:33:00;;;;;;;13.10;7.65;;;18.20;99.90;;;;;;5097125;28;20067;-56
2023/08/15 05:35:25;;;;;;;17.42;7.38;;;18.20;99.90;;;;;;5084565;28;20531;-57
2023/08/15 05:37:51;;;;;;;15.00;7.32;;;18.20;99.90;;;;;;5100334;28;20044;-58
2023/08/15 05:40:17;;;;;;;19.35;7.18;;;18.20;99.90;;;;;;5071174;28;20048;-56
2023/08/15 05:42:43;;;;;;;13.93;6.95;;;18.30;99.90;;;;;;5077923;28;20037;-57
2023/08/15 05:45:09;;;;;;;14.23;7.00;;;18.10;99.90;;;;;;5074112;28;20066;-57
2023/08/15 05:47:35;;;;;;;16.70;7.00;;;18.10;99.90;;;;;;5091794;28;20479;-56
2023/08/15 05:50:01;;;;;;;13.95;7.05;;;18.10;99.90;;;;;;5091952;28;20085;-56
2023/08/15 05:52:27;;;;;;;14.02;6.60;;;18.10;99.90;;;;;;5080714;28;20076;-56
2023/08/15 05:54:53;;;;;;;13.20;5.65;;;18.10;99.90;;;;;;5082969;28;21837;-56
2023/08/15 05:57:19;;;;;;;12.77;6.53;;;18.00;99.90;;;;;;5095634;28;20040;-56
2023/08/15 05:59:45;;;;;;;12.90;6.53;;;18.00;99.90;;;;;;5079310;28;20041;-56
2023/08/15 06:02:11;;;;;;;13.85;6.43;;;18.10;99.90;;;;;;5086649;28;20044;-57
2023/08/15 06:04:37;;;;;;;13.35;6.03;;;18.10;99.90;;;;;;5082257;28;20086;-57
2023/08/15 06:07:03;;;;;;;12.75;6.13;;;18.10;99.90;;;;;;5101656;28;20389;-57
2023/08/15 06:09:29;;;;;;;10.10;6.00;;;18.20;99.90;;;;;;5087804;28;20505;-56
2023/08/15 06:11:55;;;;;;;13.15;6.25;;;18.20;99.90;;;;;;5094053;28;20040;-56
2023/08/15 06:14:21;;;;;;;8.88;6.10;;;18.20;99.90;;;;;;5079287;28;20483;-57
2023/08/15 06:16:47;;;;;;;11.88;6.22;;;18.30;99.90;;;;;;5084122;28;20497;-58
2023/08/15 06:19:13;;;;;;;13.63;6.22;;;18.30;99.90;;;;;;5081694;28;20043;-56
2023/08/15 06:21:41;;;;;;;13.77;6.10;;;18.40;99.90;;;;;;5082039;28;20044;-57
2023/08/15 06:24:09;;;;;;;12.95;6.45;;;18.40;99.90;;;;;;5074597;28;20036;-57
2023/08/15 06:26:35;;;;;;;14.10;6.05;;;18.50;99.90;;;;;;5081027;28;20048;-57
2023/08/15 06:29:01;;;;;;;13.82;6.32;;;18.50;99.90;;;;;;5083304;28;20112;-57
2023/08/15 06:31:27;;;;;;;14.80;6.65;;;18.60;99.90;;;;;;5079031;28;20036;-57
2023/08/15 06:33:53;;;;;;;13.30;6.00;;;18.60;99.90;;;;;;5102442;28;20040;-56
2023/08/15 06:36:19;;;;;;;18.27;7.25;;;18.70;99.90;;;;;;5101977;28;20060;-56
2023/08/15 06:38:45;;;;;;;15.48;7.03;;;18.80;99.90;;;;;;5104364;28;20044;-56
2023/08/15 06:41:11;;;;;;;14.25;6.15;;;18.80;99.90;;;;;;5092348;28;20044;-56
2023/08/15 06:43:37;;;;;;;10.80;5.45;;;18.90;99.90;;;;;;5076796;28;20119;-56
2023/08/15 06:46:03;;;;;;;10.75;5.70;;;18.90;99.90;;;;;;5080084;28;20044;-57
2023/08/15 06:48:29;;;;;;;13.38;5.40;;;19.20;99.90;;;;;;5093706;28;20390;-57
2023/08/15 06:50:55;;;;;;;11.23;5.32;;;19.60;99.90;;;;;;5078699;28;20044;-56
2023/08/15 06:53:22;;;;;;;17.00;5.53;;;20.10;99.90;;;;;;5068637;28;20051;-56
2023/08/15 06:55:51;;;;;;;13.82;5.40;;;20.30;99.90;;;;;;5089003;28;20669;-56
2023/08/15 06:58:17;;;;;;;12.20;4.68;;;20.30;99.90;;;;;;5090693;28;20041;-57
2023/08/15 07:00:46;;;;;;;15.18;5.70;;;20.30;99.90;;;;;;5081760;28;20098;-57
2023/08/15 07:03:13;;;;;;;10.80;5.70;;;20.20;99.90;;;;;;5082574;28;20615;-56
2023/08/15 07:05:39;;;;;;;12.98;5.63;;;20.10;99.90;;;;;;5081204;28;20044;-57
2023/08/15 07:08:05;;;;;;;18.00;5.60;;;20.10;99.90;;;;;;5076063;28;20044;-56
2023/08/15 07:10:32;;;;;;;13.77;5.63;;;20.00;99.90;;;;;;5069392;28;20052;-57
2023/08/15 07:12:57;;;;;;;12.48;5.35;;;20.00;99.90;;;;;;5063038;28;20095;-56
2023/08/15 07:15:23;;;;;;;16.15;6.00;;;20.00;99.90;;;;;;5060981;28;20040;-57
2023/08/15 07:17:48;;;;;;;12.77;6.10;;;20.00;99.90;;;;;;5062686;28;20055;-57
2023/08/15 07:20:14;;;;;;;10.55;5.63;;;20.00;99.90;;;;;;5075998;28;20074;-56
2023/08/15 07:22:41;;;;;;;19.02;6.30;;;20.00;99.90;;;;;;5078978;28;20041;-57
2023/08/15 07:25:07;;;;;;;20.38;6.50;;;19.90;99.90;;;;;;5079155;28;20037;-56
2023/08/15 07:27:33;;;;;;;18.85;6.43;;;20.00;99.90;;;;;;5079895;28;20486;-56
2023/08/15 07:29:58;;;;;;;16.98;7.05;;;20.00;99.90;;;;;;5071265;28;20055;-57
2023/08/15 07:32:27;;;;;;;22.40;6.93;;;20.10;99.90;;;;;;5077931;28;20063;-57
2023/08/15 07:34:53;;;;;;;17.85;7.20;;;20.10;99.90;;;;;;5064622;28;20044;-56
2023/08/15 07:37:18;;;;;;;14.20;6.97;;;20.10;99.90;;;;;;5079273;28;20041;-57
2023/08/15 07:39:44;;;;;;;16.55;6.70;;;20.20;99.90;;;;;;5076043;28;20044;-57
2023/08/15 07:42:10;;;;;;;13.93;6.82;;;20.30;99.90;;;;;;5081698;28;20611;-56
2023/08/15 07:44:36;;;;;;;14.60;6.25;;;20.40;99.90;;;;;;5076123;28;20044;-56
2023/08/15 07:47:02;;;;;;;20.15;6.63;;;20.50;99.90;;;;;;5080113;28;20096;-56
2023/08/15 07:49:30;;;;;;;16.40;6.30;;;20.60;99.90;;;;;;5070625;28;20082;-57
2023/08/15 07:51:56;;;;;;;14.02;6.55;;;20.90;99.90;;;;;;5075672;28;20037;-56
2023/08/15 07:54:22;;;;;;;18.20;6.68;;;21.10;99.90;;;;;;5075822;28;20039;-56
2023/08/15 07:56:47;;;;;;;15.75;6.90;;;21.10;99.90;;;;;;5077287;28;20566;-57
2023/08/15 07:59:13;;;;;;;14.20;6.45;;;21.20;99.90;;;;;;5077283;28;20045;-56
2023/08/15 08:01:39;;;;;;;13.10;6.22;;;21.20;99.90;;;;;;5080088;28;20040;-56
2023/08/15 08:04:05;;;;;;;17.20;7.38;;;21.20;99.90;;;;;;5079990;28;20048;-56
2023/08/15 08:06:31;;;;;;;18.60;7.22;;;21.30;99.90;;;;;;5076010;28;20361;-56
2023/08/15 08:08:57;;;;;;;16.08;7.70;;;21.30;99.90;;;;;;5067578;28;20100;-56
2023/08/15 08:11:23;;;;;;;12.93;7.45;;;21.40;99.90;;;;;;5080382;28;20032;-57
2023/08/15 08:13:49;;;;;;;17.55;7.38;;;21.40;99.90;;;;;;5077074;28;20112;-57
2023/08/15 08:16:17;;;;;;;14.70;7.32;;;21.40;99.90;;;;;;5076922;28;20036;-56
2023/08/15 08:18:43;;;;;;;14.15;7.00;;;21.40;99.90;;;;;;5077602;28;20798;-57
2023/08/15 08:21:09;;;;;;;13.70;6.47;;;21.50;99.90;;;;;;5079070;28;20066;-57
2023/08/15 08:23:35;;;;;;;7.70;5.10;;;21.50;99.90;;;;;;5078350;28;20058;-57
2023/08/15 08:26:01;;;;;;;13.48;5.88;;;21.50;99.90;;;;;;5081070;28;20052;-57
2023/08/15 08:28:27;;;;;;;12.32;5.22;;;21.50;99.90;;;;;;5076964;28;20072;-57
2023/08/15 08:30:52;;;;;;;13.90;4.95;;;21.50;99.90;;;;;;5081747;28;20512;-57
2023/08/15 08:33:18;;;;;;;7.72;4.47;;;21.60;99.90;;;;;;5077192;28;20041;-57
2023/08/15 08:35:44;;;;;;;12.95;4.22;;;21.70;99.90;;;;;;5072775;28;20061;-57
2023/08/15 08:38:10;;;;;;;10.65;4.05;;;21.70;99.90;;;;;;5061509;28;20079;-57
2023/08/15 08:40:36;;;;;;;9.27;3.97;;;21.70;99.90;;;;;;5061854;28;20037;-57
2023/08/15 08:43:03;;;;;;;12.38;4.55;;;21.70;99.90;;;;;;5060754;28;20527;-57
2023/08/15 08:45:31;;;;;;;11.23;4.28;;;21.70;99.90;;;;;;5059307;28;20045;-56
2023/08/15 08:47:58;;;;;;;8.45;3.53;;;21.60;99.90;;;;;;5068017;28;20117;-56
2023/08/15 08:50:26;;;;;;;9.65;3.78;;;21.60;99.90;;;;;;5077430;28;20040;-56
2023/08/15 08:52:52;;;;;;;10.38;3.58;;;21.60;99.90;;;;;;5073856;28;20466;-56
2023/08/15 08:55:20;;;;;;;11.75;4.07;;;21.60;99.90;;;;;;5079316;28;20045;-57
2023/08/15 08:57:50;;;;;;;10.25;3.53;;;21.70;99.90;;;;;;5077584;28;20048;-56
2023/08/15 09:00:19;;;;;;;7.53;2.63;;;21.80;99.90;;;;;;5081433;28;20055;-56
2023/08/15 09:02:45;;;;;;;9.45;3.88;;;21.80;99.90;;;;;;5078491;28;20103;-57
2023/08/15 09:05:12;;;;;;;9.80;3.47;;;21.90;99.90;;;;;;5079650;28;20040;-57
2023/08/15 09:07:37;;;;;;;8.30;2.60;;;22.00;99.90;;;;;;5080242;28;20064;-56
2023/08/15 09:10:05;;;;;;;9.05;2.90;;;22.20;99.90;;;;;;5079981;28;20045;-56
2023/08/15 09:12:35;;;;;;;11.02;2.88;;;22.20;99.90;;;;;;5080104;28;20084;-57
2023/08/15 09:15:01;;;;;;;9.35;3.15;;;22.30;99.90;;;;;;5077435;28;20139;-57
2023/08/15 09:17:26;;;;;;;12.63;3.35;;;22.30;99.90;;;;;;5080304;28;20143;-56
2023/08/15 09:19:53;;;;;;;10.40;3.63;;;22.30;99.90;;;;;;5068739;28;20060;-56
2023/08/15 09:22:24;;;;;;;13.35;4.20;;;22.30;99.90;;;;;;5059781;28;20041;-56
2023/08/15 09:24:51;;;;;;;9.75;3.80;;;22.20;99.90;;;;;;5060093;28;20041;-56
2023/08/15 09:27:19;;;;;;;8.48;3.60;;;22.20;99.90;;;;;;5059860;28;20041;-57
2023/08/15 09:29:44;;;;;;;10.52;3.58;;;22.20;99.90;;;;;;5069723;28;20047;-57
2023/08/15 09:32:11;;;;;;;10.52;4.13;;;22.20;99.90;;;;;;5078587;28;20255;-57
2023/08/15 09:34:37;;;;;;;10.93;3.40;;;22.30;99.90;;;;;;5079095;28;20044;-57
2023/08/15 09:37:02;;;;;;;11.77;3.72;;;22.30;99.90;;;;;;5077937;28;20059;-57
2023/08/15 09:39:28;;;;;;;9.45;3.70;;;22.40;99.90;;;;;;5073199;28;20037;-57
2023/08/15 09:41:55;;;;;;;11.02;3.60;;;22.40;99.90;;;;;;5069246;28;20083;-57
2023/08/15 09:44:32;;;;;;;8.13;3.30;;;22.40;99.90;;;;;;5054269;28;20049;-57
2023/08/15 09:46:59;;;;;;;11.60;3.42;;;22.40;99.90;;;;;;5064285;28;20066;-57
2023/08/15 09:49:28;;;;;;;10.30;3.10;;;22.40;99.90;;;;;;5069094;28;20257;-57
2023/08/15 09:51:56;;;;;;;8.63;2.90;;;22.30;99.90;;;;;;5068160;28;20047;-58
2023/08/15 09:54:25;;;;;;;8.95;2.90;;;22.30;99.90;;;;;;5063172;28;20100;-58
2023/08/15 09:56:51;;;;;;;7.90;3.00;;;22.40;99.90;;;;;;5059606;28;20485;-57
2023/08/15 09:59:17;;;;;;;5.07;2.70;;;22.50;99.90;;;;;;5066766;28;20032;-58
2023/08/15 10:01:46;;;;;;;8.45;2.92;;;22.60;99.90;;;;;;5059011;28;20040;-58
2023/08/15 10:04:13;;;;;;;8.63;2.90;;;22.60;99.90;;;;;;5062719;28;20039;-58
2023/08/15 10:06:45;;;;;;;5.95;3.05;;;22.70;99.90;;;;;;5068054;28;20040;-58
2023/08/15 10:09:12;;;;;;;11.88;3.20;;;22.70;99.90;;;;;;5068284;28;20029;-58
2023/08/15 10:11:47;;;;;;;11.52;3.47;;;22.70;99.90;;;;;;5061540;28;20029;-58
2023/08/15 10:14:15;;;;;;;9.27;3.15;;;22.70;99.90;;;;;;5071408;28;20060;-58
2023/08/15 10:16:41;;;;;;;9.18;3.17;;;22.80;99.90;;;;;;5063248;28;20040;-58
2023/08/15 10:19:10;;;;;;;10.32;3.15;;;22.70;99.90;;;;;;5065173;28;20068;-58
2023/08/15 10:21:52;;;;;;;10.43;3.05;;;22.80;99.90;;;;;;5062966;28;20131;-58
2023/08/15 10:24:18;;;;;;;10.82;3.75;;;22.90;99.90;;;;;;5066712;28;20040;-57
2023/08/15 10:26:45;;;;;;;11.30;3.58;;;22.90;99.90;;;;;;5059266;28;20045;-57
2023/08/15 10:29:10;;;;;;;11.00;3.35;;;22.80;99.90;;;;;;5068793;28;20067;-57
2023/08/15 10:31:38;;;;;;;11.63;3.63;;;22.70;99.90;;;;;;5065447;28;20505;-57
2023/08/15 10:34:07;;;;;;;11.55;3.42;;;22.60;99.90;;;;;;5061353;28;20037;-58
2023/08/15 10:36:32;;;;;;;10.18;3.40;;;22.50;99.90;;;;;;5064926;28;20101;-58
2023/08/15 10:39:05;;;;;;;10.95;3.20;;;22.50;99.90;;;;;;5067325;28;20064;-58
2023/08/15 10:41:32;;;;;;;10.45;3.22;;;22.50;99.90;;;;;;5072143;28;20059;-58
2023/08/15 10:44:03;;;;;;;9.40;3.00;;;22.60;99.90;;;;;;5070247;28;20049;-56
2023/08/15 10:46:30;;;;;;;7.03;3.65;;;22.70;99.90;;;;;;5062424;28;20037;-58
2023/08/15 10:49:04;;;;;;;9.38;3.38;;;22.70;99.90;;;;;;5064549;28;20286;-58
2023/08/15 10:51:32;;;;;;;9.23;3.97;;;22.70;99.90;;;;;;5078921;28;20037;-58
2023/08/15 10:54:16;;;;;;;10.05;4.50;;;22.70;99.90;;;;;;5065544;28;20025;-57
2023/08/15 10:56:42;;;;;;;11.00;4.20;;;22.70;99.90;;;;;;5063265;28;20044;-58
2023/08/15 10:59:11;;;;;;;11.27;4.22;;;22.60;99.90;;;;;;5063056;28;20070;-58
2023/08/15 11:01:39;;;;;;;8.27;3.95;;;22.70;99.90;;;;;;5075921;28;20059;-59
2023/08/15 11:04:10;;;;;;;10.90;3.92;;;22.50;99.90;;;;;;5071397;28;20044;-57
2023/08/15 11:06:43;;;;;;;12.07;4.90;;;22.60;99.90;;;;;;5068080;28;20029;-57
2023/08/15 11:09:10;;;;;;;10.45;4.30;;;22.70;99.90;;;;;;5074079;28;20040;-57
2023/08/15 11:11:36;;;;;;;9.15;3.80;;;22.80;99.90;;;;;;5073085;28;20077;-57
2023/08/15 11:14:02;;;;;;;10.70;4.18;;;22.90;99.90;;;;;;5067979;28;20049;-57
2023/08/15 11:16:28;;;;;;;10.23;3.95;;;22.90;99.90;;;;;;5061124;28;20037;-57
2023/08/15 11:18:57;;;;;;;11.20;3.88;;;22.90;99.90;;;;;;5103945;28;20119;-57
2023/08/15 11:21:27;;;;;;;13.45;4.30;;;22.90;99.90;;;;;;5068885;28;20048;-57
2023/08/15 11:23:54;;;;;;;13.10;4.57;;;22.90;99.90;;;;;;5075474;28;20064;-58
2023/08/15 11:26:23;;;;;;;12.73;4.05;;;23.00;99.90;;;;;;5067628;28;20048;-58
2023/08/15 11:28:49;;;;;;;10.10;4.18;;;23.10;99.90;;;;;;5067624;28;20378;-58
2023/08/15 11:31:16;;;;;;;10.65;4.43;;;23.00;99.90;;;;;;5068055;28;20041;-57
2023/08/15 11:33:42;;;;;;;12.45;4.78;;;23.00;99.90;;;;;;5076235;28;20040;-56
2023/08/15 11:36:11;;;;;;;12.88;5.07;;;23.10;99.90;;;;;;5078331;28;20497;-56
2023/08/15 11:38:38;;;;;;;12.60;4.88;;;23.10;99.90;;;;;;5070520;28;20052;-56
2023/08/15 11:41:05;;;;;;;16.73;5.20;;;23.00;99.90;;;;;;5064286;28;20040;-56
2023/08/15 11:43:32;;;;;;;13.73;5.05;;;23.10;99.90;;;;;;5074843;28;20086;-57
2023/08/15 11:46:02;;;;;;;12.85;4.72;;;23.00;99.90;;;;;;5069076;28;20056;-56
2023/08/15 11:48:29;;;;;;;9.43;3.58;;;22.90;99.90;;;;;;5078159;28;20056;-58
2023/08/15 11:50:54;;;;;;;5.85;3.15;;;22.80;99.90;;;;;;5080199;28;20428;-57
2023/08/15 11:53:20;;;;;;;10.27;4.55;;;22.60;99.90;;;;;;5063853;28;20431;-57
2023/08/15 11:55:47;;;;;;;11.48;4.63;;;22.40;99.90;;;;;;5075893;28;20045;-57
2023/08/15 11:58:26;;;;;;;13.68;4.80;;;22.40;99.90;;;;;;5074097;28;20488;-58
2023/08/15 12:01:12;;;;;;;12.05;4.60;;;22.40;99.90;;;;;;5072379;28;20044;-57
2023/08/15 12:03:38;;;;;;;8.45;4.80;;;22.40;99.90;;;;;;5071027;28;20033;-55
2023/08/15 12:06:09;;;;;;;12.57;5.13;;;22.40;99.90;;;;;;5070670;28;20064;-57
2023/08/15 12:08:35;;;;;;;12.32;5.05;;;22.40;99.90;;;;;;5067459;28;20044;-57
2023/08/15 12:11:06;;;;;;;11.32;4.85;;;22.30;99.90;;;;;;5077298;28;20048;-58
2023/08/15 12:13:39;;;;;;;10.50;4.82;;;22.20;99.90;;;;;;5066628;28;20048;-57
2023/08/15 12:16:06;;;;;;;12.90;4.70;;;22.20;99.90;;;;;;5070303;28;20079;-57
2023/08/15 12:18:32;;;;;;;12.07;4.80;;;22.10;99.90;;;;;;5077387;28;20052;-58
2023/08/15 12:20:59;;;;;;;10.43;4.97;;;22.10;99.90;;;;;;5076212;28;20076;-57
2023/08/15 12:23:25;;;;;;;16.15;5.18;;;22.20;99.90;;;;;;5068215;28;20080;-57
2023/08/15 12:25:51;;;;;;;10.50;4.30;;;22.30;99.90;;;;;;5078139;28;20079;-57
2023/08/15 12:28:20;;;;;;;7.88;4.57;;;22.40;99.90;;;;;;5071688;28;20049;-57
2023/08/15 12:30:47;;;;;;;8.77;4.53;;;22.50;99.90;;;;;;5062600;28;20048;-57
2023/08/15 12:33:13;;;;;;;8.98;4.45;;;22.60;99.90;;;;;;5066190;28;20044;-56
2023/08/15 12:35:39;;;;;;;10.63;4.63;;;22.60;99.90;;;;;;5066692;28;20053;-57